臺東航空站 - ATIS

METAR RCFN 251030Z 04006KT 350V090 9999 FEW016 SCT028 27/25 Q1009 NOSIG RMK A2982=

站台狀態:Online
最後更新:2022-09-25 19:00:01